Time;durP1;ratioP1;P1;durP2;ratioP2;P2;SDS_P1;SDS_P2;PMS_P1;PMS_P2;Temp;Humidity;BMP_temperature;BMP_pressure;BME280_temperature;BME280_humidity;BME280_pressure;Samples;Min_cycle;Max_cycle;Signal;HPM_P1;HPM_P2
2022/04/29 00:00:02;;;;;;;8.07;6.32;;;;;;;16.29;37.48;94373.72;5010093;28;20104;-92
2022/04/29 00:02:28;;;;;;;8.25;6.35;;;;;;;16.34;37.67;94372.31;5009990;28;20061;-89
2022/04/29 00:04:53;;;;;;;7.55;6.13;;;;;;;16.32;37.54;94363.84;5011944;28;20042;-89
2022/04/29 00:07:18;;;;;;;12.30;6.90;;;;;;;16.30;37.66;94358.84;4994437;28;20045;-89
2022/04/29 00:09:44;;;;;;;7.93;6.78;;;;;;;16.31;37.42;94365.06;4995014;28;20042;-89
2022/04/29 00:12:12;;;;;;;8.98;5.68;;;;;;;16.31;37.56;94360.34;4984375;28;20088;-89
2022/04/29 00:14:37;;;;;;;6.95;5.63;;;;;;;16.30;37.66;94353.41;4956972;28;20031;-89
2022/04/29 00:17:04;;;;;;;7.78;6.63;;;;;;;16.29;37.55;94362.81;4972753;28;20045;-89
2022/04/29 00:19:29;;;;;;;7.80;6.55;;;;;;;16.29;37.45;94360.06;4976139;28;20121;-89
2022/04/29 00:21:55;;;;;;;7.25;5.80;;;;;;;16.29;37.77;94360.06;4980254;28;20390;-90
2022/04/29 00:24:21;;;;;;;6.72;6.03;;;;;;;16.30;37.55;94361.56;4965191;28;20046;-90
2022/04/29 00:26:46;;;;;;;8.25;6.13;;;;;;;16.29;37.74;94359.31;4975315;28;20133;-89
2022/04/29 00:29:11;;;;;;;9.43;6.88;;;;;;;16.28;37.66;94352.34;4974896;28;20053;-89
2022/04/29 00:31:39;;;;;;;9.10;6.68;;;;;;;16.28;37.37;94347.66;4991215;28;20373;-88
2022/04/29 00:34:04;;;;;;;7.22;5.90;;;;;;;16.28;37.71;94339.47;4991370;28;20532;-89
2022/04/29 00:36:30;;;;;;;7.18;6.03;;;;;;;16.28;37.64;94344.19;4976146;28;20034;-89
2022/04/29 00:38:55;;;;;;;6.43;5.25;;;;;;;16.28;37.43;94357.81;5008209;28;20033;-90
2022/04/29 00:41:22;;;;;;;7.43;5.90;;;;;;;16.27;37.47;94346.16;5006816;28;20080;-90
2022/04/29 00:43:58;;;;;;;7.28;5.85;;;;;;;16.27;37.81;94348.13;5008130;28;20050;-89
2022/04/29 00:46:23;;;;;;;7.60;5.78;;;;;;;16.27;37.63;94345.41;5007192;28;20034;-90
2022/04/29 00:48:49;;;;;;;6.75;5.95;;;;;;;16.26;37.45;94339.19;5007988;28;20038;-88
2022/04/29 00:51:14;;;;;;;7.22;6.20;;;;;;;16.28;37.76;94333.25;4991038;28;20077;-89
2022/04/29 00:53:40;;;;;;;7.82;6.13;;;;;;;16.26;37.85;94336.47;4975066;28;20080;-89
2022/04/29 00:56:05;;;;;;;6.47;5.70;;;;;;;16.26;37.48;94327.53;4974974;28;20092;-90
2022/04/29 00:58:33;;;;;;;8.18;6.00;;;;;;;16.27;37.70;94326.31;4975183;28;20038;-89
2022/04/29 01:01:00;;;;;;;7.68;5.85;;;;;;;16.26;37.45;94330.25;5003589;28;20057;-89
2022/04/29 01:03:25;;;;;;;8.13;5.50;;;;;;;16.25;37.64;94324.03;4993950;28;20140;-89
2022/04/29 01:05:51;;;;;;;5.75;5.15;;;;;;;16.26;37.74;94332.97;4985952;28;20474;-89
2022/04/29 01:08:16;;;;;;;6.55;5.43;;;;;;;16.26;37.62;94325.56;4981334;28;20039;-89
2022/04/29 01:10:41;;;;;;;5.88;5.20;;;;;;;16.25;37.63;94315.09;4971931;28;20088;-90
2022/04/29 01:13:07;;;;;;;6.35;5.38;;;;;;;16.25;37.52;94321.31;4998936;28;20029;-89
2022/04/29 01:15:33;;;;;;;5.88;5.30;;;;;;;16.24;37.64;94324.53;5011432;28;20050;-89
2022/04/29 01:18:10;;;;;;;7.32;6.13;;;;;;;16.25;37.75;94321.31;4995066;28;20034;-89
2022/04/29 01:20:36;;;;;;;6.65;5.68;;;;;;;16.24;37.72;94317.09;5009718;28;20037;-89
2022/04/29 01:23:06;;;;;;;8.20;5.95;;;;;;;16.24;37.91;94319.81;4959758;28;20040;-88
2022/04/29 01:25:32;;;;;;;6.80;5.65;;;;;;;16.25;37.69;94315.88;4990526;28;20129;-89
2022/04/29 01:27:57;;;;;;;6.00;4.88;;;;;;;16.23;37.66;94329.25;4995104;28;20037;-90
2022/04/29 01:30:23;;;;;;;6.80;4.95;;;;;;;16.23;37.70;94320.31;4977846;28;20041;-89
2022/04/29 01:32:48;;;;;;;8.95;5.57;;;;;;;16.24;37.30;94317.09;4978842;28;20037;-89
2022/04/29 01:35:14;;;;;;;5.85;5.25;;;;;;;16.22;37.69;94314.09;4977820;28;20386;-89
2022/04/29 01:37:40;;;;;;;8.07;5.13;;;;;;;16.22;37.60;94310.63;4978266;28;20042;-90
2022/04/29 01:40:06;;;;;;;5.55;4.97;;;;;;;16.20;37.45;94302.91;4977695;28;20053;-91
2022/04/29 01:42:31;;;;;;;6.35;5.15;;;;;;;16.21;37.71;94304.41;4978239;28;20041;-90
2022/04/29 01:44:57;;;;;;;7.07;5.47;;;;;;;16.22;37.58;94305.91;5010774;28;20046;-90
2022/04/29 01:47:22;;;;;;;5.85;4.93;;;;;;;16.23;37.37;94295.75;4994296;28;20034;-89
2022/04/29 01:49:48;;;;;;;6.10;5.03;;;;;;;16.22;37.62;94295.00;5010118;28;20057;-89
2022/04/29 01:52:13;;;;;;;5.97;5.07;;;;;;;16.21;37.71;94290.03;4997001;28;20041;-89
2022/04/29 01:54:39;;;;;;;6.13;5.07;;;;;;;16.21;37.69;94293.50;5013916;28;20413;-89
2022/04/29 01:57:05;;;;;;;6.15;5.05;;;;;;;16.21;37.67;94285.31;4997676;28;20037;-89
2022/04/29 01:59:31;;;;;;;6.28;4.68;;;;;;;16.20;37.43;94289.28;5013652;28;20068;-89
2022/04/29 02:01:58;;;;;;;6.45;5.28;;;;;;;16.22;37.47;94288.81;4997261;28;20035;-89
2022/04/29 02:04:23;;;;;;;5.85;5.00;;;;;;;16.20;37.35;94288.53;4974614;28;20033;-89
2022/04/29 02:06:48;;;;;;;6.35;5.28;;;;;;;16.19;37.58;94279.59;4958651;28;20042;-89
2022/04/29 02:09:14;;;;;;;5.15;4.40;;;;;;;16.20;37.71;94281.09;4974088;28;20449;-91
2022/04/29 02:11:39;;;;;;;4.88;4.10;;;;;;;16.20;37.67;94280.34;4960885;28;20561;-90
2022/04/29 02:14:05;;;;;;;6.40;5.00;;;;;;;16.18;37.67;94278.09;5009334;28;20580;-90
2022/04/29 02:16:30;;;;;;;6.03;4.28;;;;;;;16.18;37.66;94274.59;4977965;28;20501;-88
2022/04/29 02:18:56;;;;;;;6.30;4.50;;;;;;;16.20;37.73;94272.91;4993925;28;20421;-89
2022/04/29 02:21:21;;;;;;;5.10;4.60;;;;;;;16.19;37.19;94273.38;5009641;28;20041;-89
2022/04/29 02:23:47;;;;;;;5.97;5.38;;;;;;;16.18;37.61;94274.59;4993347;28;20042;-89
2022/04/29 02:26:12;;;;;;;5.50;4.28;;;;;;;16.18;37.45;94272.63;4989751;28;20065;-89
2022/04/29 02:28:38;;;;;;;6.22;4.70;;;;;;;16.16;37.68;94272.34;4974540;28;20042;-90
2022/04/29 02:31:03;;;;;;;6.80;5.10;;;;;;;16.17;37.82;94257.47;4957624;28;20042;-89
2022/04/29 02:33:30;;;;;;;6.35;4.32;;;;;;;16.17;37.48;94264.91;4973874;28;20682;-89
2022/04/29 02:35:56;;;;;;;5.30;4.68;;;;;;;16.17;37.78;94270.38;4974336;28;20046;-89
2022/04/29 02:38:22;;;;;;;4.88;4.38;;;;;;;16.16;37.65;94261.44;5010892;28;20044;-89
2022/04/29 02:40:50;;;;;;;5.50;4.63;;;;;;;16.17;37.56;94265.66;4978093;28;20124;-89
2022/04/29 02:43:16;;;;;;;6.43;4.70;;;;;;;16.16;37.40;94272.34;5008881;28;20061;-89
2022/04/29 02:45:41;;;;;;;5.90;4.75;;;;;;;16.18;37.58;94271.88;4992776;28;20046;-89
2022/04/29 02:48:07;;;;;;;5.88;4.60;;;;;;;16.17;37.56;94270.38;4993002;28;20497;-89
2022/04/29 02:50:33;;;;;;;6.65;5.20;;;;;;;16.15;37.55;94272.81;5012019;28;20480;-88
2022/04/29 02:52:58;;;;;;;5.88;5.07;;;;;;;16.16;37.61;94261.44;4996477;28;20034;-89
2022/04/29 02:55:23;;;;;;;7.03;5.00;;;;;;;16.16;37.44;94260.69;5012343;28;20037;-88
2022/04/29 02:57:49;;;;;;;5.75;4.65;;;;;;;16.17;37.43;94264.91;5013266;28;20046;-88
2022/04/29 03:00:15;;;;;;;5.68;4.47;;;;;;;16.16;37.61;94269.63;5011938;28;20416;-89
2022/04/29 03:02:40;;;;;;;5.82;4.97;;;;;;;16.16;37.33;94274.31;4977114;28;20392;-89
2022/04/29 03:05:06;;;;;;;5.57;4.97;;;;;;;16.15;37.28;94265.38;4976579;28;20026;-89
2022/04/29 03:07:33;;;;;;;4.75;4.25;;;;;;;16.15;37.57;94273.56;4992786;28;20063;-89
2022/04/29 03:09:59;;;;;;;6.07;4.72;;;;;;;16.14;37.41;94266.63;4977104;28;20056;-89
2022/04/29 03:12:24;;;;;;;6.03;4.63;;;;;;;16.15;37.54;94267.38;4976241;28;20037;-89
2022/04/29 03:14:49;;;;;;;7.03;5.18;;;;;;;16.14;37.48;94257.69;5012191;28;20095;-89
2022/04/29 03:19:59;;;;;;;6.85;4.93;;;;;;;16.14;37.43;94274.81;5015025;28;20522;-89
2022/04/29 03:22:25;;;;;;;6.07;4.38;;;;;;;16.13;37.43;94269.81;4980470;28;20034;-90
2022/04/29 03:24:51;;;;;;;5.60;4.13;;;;;;;16.13;37.47;94258.91;4980320;28;20037;-89
2022/04/29 03:27:17;;;;;;;5.57;4.65;;;;;;;16.13;37.75;94264.38;5011360;28;20096;-89
2022/04/29 03:29:42;;;;;;;5.70;4.72;;;;;;;16.14;37.77;94252.97;4995674;28;20052;-89
2022/04/29 03:32:09;;;;;;;5.32;4.47;;;;;;;16.13;37.84;94261.63;5011607;28;20034;-90
2022/04/29 03:34:34;;;;;;;5.93;4.50;;;;;;;16.13;37.70;94261.63;5011773;28;20034;-90
2022/04/29 03:37:00;;;;;;;4.63;4.13;;;;;;;16.10;37.41;94263.34;5011655;28;20042;-89
2022/04/29 03:39:25;;;;;;;5.13;4.03;;;;;;;16.10;37.77;94255.91;5000008;28;20140;-88
2022/04/29 03:41:51;;;;;;;6.93;4.22;;;;;;;16.10;37.58;94253.16;4957206;28;20035;-89
2022/04/29 03:44:16;;;;;;;5.25;4.57;;;;;;;16.11;37.44;94251.94;4956421;28;20121;-89
2022/04/29 03:46:42;;;;;;;5.72;4.60;;;;;;;16.10;37.82;94258.63;4956921;28;20547;-89
2022/04/29 03:51:51;;;;;;;5.00;4.38;;;;;;;16.10;37.35;94258.63;5015242;28;20092;-89
2022/04/29 03:54:17;;;;;;;6.95;4.60;;;;;;;16.11;37.77;94257.41;4994744;28;20037;-89
2022/04/29 03:56:42;;;;;;;5.53;4.20;;;;;;;16.10;37.43;94264.09;5012110;28;20034;-89
2022/04/29 03:59:07;;;;;;;4.82;4.20;;;;;;;16.08;37.34;94257.59;4995297;28;20150;-89
2022/04/29 04:01:33;;;;;;;5.68;4.32;;;;;;;16.10;37.46;94268.78;4983696;28;20132;-89
2022/04/29 04:03:58;;;;;;;4.50;4.10;;;;;;;16.09;37.50;94265.31;4956259;28;20038;-89
2022/04/29 04:09:08;;;;;;;8.27;4.38;;;;;;;16.09;37.43;94276.22;5014461;28;20487;-90
2022/04/29 04:11:34;;;;;;;5.03;4.10;;;;;;;16.07;37.34;94270.47;4993415;28;20030;-90
2022/04/29 04:13:59;;;;;;;5.05;4.45;;;;;;;16.08;37.36;94277.44;4985898;28;20037;-93
2022/04/29 04:16:25;;;;;;;4.95;4.10;;;;;;;16.11;37.58;94278.47;5007562;28;20033;-89
2022/04/29 04:18:51;;;;;;;5.22;4.20;;;;;;;16.10;37.48;94276.97;5008051;28;20066;-88
2022/04/29 04:21:16;;;;;;;5.53;4.45;;;;;;;16.09;37.48;94273.50;4987739;28;20569;-88
2022/04/29 04:23:42;;;;;;;5.22;4.00;;;;;;;16.09;37.71;94272.75;4972038;28;20061;-89
2022/04/29 04:26:07;;;;;;;5.75;4.50;;;;;;;16.12;37.64;94288.16;4975207;28;20038;-90
2022/04/29 04:28:32;;;;;;;5.57;4.50;;;;;;;16.13;37.57;94286.94;5008020;28;20046;-89
2022/04/29 04:30:58;;;;;;;4.65;4.03;;;;;;;16.13;37.25;94273.28;4976141;28;20034;-89
2022/04/29 04:33:23;;;;;;;7.43;5.20;;;;;;;16.10;37.55;94283.19;4992138;28;20038;-88
2022/04/29 04:35:49;;;;;;;20.95;13.90;;;;;;;16.10;37.77;94283.19;5003408;28;20041;-86
2022/04/29 04:38:14;;;;;;;19.63;13.02;;;;;;;16.15;37.93;94281.75;5008143;28;20125;-85
2022/04/29 04:40:40;;;;;;;13.82;9.13;;;;;;;16.13;37.60;94283.44;4989600;28;20042;-88
2022/04/29 04:43:06;;;;;;;24.40;9.25;;;;;;;16.15;37.64;94276.31;4983784;28;20049;-88
2022/04/29 04:45:31;;;;;;;20.15;10.15;;;;;;;16.21;37.54;94266.22;4972026;28;20077;-88
2022/04/29 04:47:57;;;;;;;13.65;7.15;;;;;;;16.19;37.04;94282.31;5006062;28;20132;-91
2022/04/29 04:50:23;;;;;;;15.10;7.15;;;;;;;16.23;37.11;94269.22;4992352;28;20100;-90
2022/04/29 04:52:48;;;;;;;13.18;6.40;;;;;;;16.20;37.06;94277.63;4971957;28;20053;-89
2022/04/29 04:55:14;;;;;;;11.45;5.60;;;;;;;16.18;37.47;94278.09;4993599;28;20038;-86
2022/04/29 04:57:41;;;;;;;27.02;7.07;;;;;;;16.14;36.86;94285.72;4986688;28;20038;-90
2022/04/29 05:00:07;;;;;;;23.13;9.52;;;;;;;16.03;36.03;94286.28;5009014;23;20053;-89
2022/04/29 05:02:38;;;;;;;18.33;9.15;;;;;;;16.00;35.11;94289.22;5034201;28;20636;-88
2022/04/29 05:05:04;;;;;;;39.55;16.63;;;;;;;15.78;34.77;94281.47;5009965;28;20069;-87
2022/04/29 05:07:30;;;;;;;50.58;16.45;;;;;;;15.75;34.92;94290.59;4998847;28;20097;-91
2022/04/29 05:09:56;;;;;;;65.82;19.23;;;;;;;15.65;35.03;94292.66;5003595;28;20524;-88
2022/04/29 05:12:22;;;;;;;87.05;31.30;;;;;;;15.52;35.34;94288.69;5012630;28;20085;-84
2022/04/29 05:14:47;;;;;;;93.28;26.02;;;;;;;15.56;35.37;94298.22;5007940;28;20099;-85
2022/04/29 05:17:13;;;;;;;78.82;19.10;;;;;;;15.52;35.85;94300.34;5018125;28;20076;-84
2022/04/29 05:19:38;;;;;;;110.85;22.27;;;;;;;15.53;35.87;94306.56;4981159;28;20046;-88
2022/04/29 05:22:04;;;;;;;61.20;18.52;;;;;;;15.51;36.19;94303.53;5007308;28;20041;-88
2022/04/29 05:24:30;;;;;;;74.30;29.13;;;;;;;15.65;36.21;94308.25;5014240;28;20042;-88
2022/04/29 05:26:55;;;;;;;74.35;21.45;;;;;;;15.50;36.32;94310.22;5009227;28;20555;-87
2022/04/29 05:29:21;;;;;;;59.45;19.23;;;;;;;15.44;36.98;94310.09;5021803;28;20393;-87
2022/04/29 05:31:47;;;;;;;51.03;14.25;;;;;;;15.48;37.61;94309.94;4993359;28;20049;-89
2022/04/29 05:34:12;;;;;;;25.05;11.95;;;;;;;15.41;37.49;94313.75;5026096;28;20030;-88
2022/04/29 05:36:38;;;;;;;29.55;11.10;;;;;;;15.36;37.53;94309.75;4996725;28;20043;-88
2022/04/29 05:44:34;;;;;;;27.70;11.70;;;;;;;15.51;37.50;94307.03;5028744;28;20040;-86
2022/04/29 05:46:59;;;;;;;357.08;36.65;;;;;;;15.60;37.44;94298.00;5007765;28;20509;-85
2022/04/29 05:49:25;;;;;;;78.65;18.52;;;;;;;15.64;37.35;94302.06;5004749;28;20124;-87
2022/04/29 05:51:51;;;;;;;867.88;106.28;;;;;;;15.66;37.24;94309.75;5033994;28;20052;-87
2022/04/29 05:54:16;;;;;;;411.30;48.92;;;;;;;15.70;37.36;94294.72;4994900;28;20037;-86
2022/04/29 05:56:42;;;;;;;152.23;34.80;;;;;;;15.74;37.02;94308.91;5010787;28;20036;-88
2022/04/29 05:59:07;;;;;;;131.13;30.80;;;;;;;15.75;37.46;94307.69;5003898;28;20056;-89
2022/04/29 06:01:33;;;;;;;108.55;28.77;;;;;;;15.83;37.12;94307.28;5022036;28;20056;-88
2022/04/29 06:03:58;;;;;;;70.80;24.58;;;;;;;15.84;37.37;94308.78;5030925;28;20064;-91
2022/04/29 06:06:24;;;;;;;66.40;23.23;;;;;;;15.90;37.02;94296.75;5012933;28;20063;-86
2022/04/29 06:08:49;;;;;;;56.85;22.10;;;;;;;15.87;37.36;94303.16;5027017;28;20491;-87
2022/04/29 06:11:24;;;;;;;43.40;19.15;;;;;;;15.94;37.03;94305.50;5030253;28;20042;-90
2022/04/29 06:13:50;;;;;;;46.83;18.55;;;;;;;15.98;37.08;94306.06;5039401;28;20533;-88
2022/04/29 06:16:17;;;;;;;44.58;18.55;;;;;;;16.04;36.81;94308.84;5018057;28;20085;-90
2022/04/29 06:18:43;;;;;;;34.17;17.25;;;;;;;16.10;36.58;94315.16;5031942;28;20484;-87
2022/04/29 06:21:08;;;;;;;35.40;16.20;;;;;;;16.11;36.69;94311.94;5005390;28;20117;-89
2022/04/29 06:23:34;;;;;;;47.75;17.75;;;;;;;16.13;36.67;94316.19;5018048;28;20041;-89
2022/04/29 06:25:59;;;;;;;45.03;15.50;;;;;;;16.16;36.92;94313.28;5021243;28;20097;-89
2022/04/29 06:28:32;;;;;;;36.75;15.63;;;;;;;16.20;36.73;94310.34;5022876;28;20052;-89
2022/04/29 06:31:00;;;;;;;33.28;16.17;;;;;;;16.20;36.73;94315.81;5006584;28;20518;-89
2022/04/29 06:33:30;;;;;;;27.08;14.98;;;;;;;16.18;36.72;94310.81;5007906;28;20045;-90
2022/04/29 06:35:56;;;;;;;30.57;14.23;;;;;;;16.20;36.42;94315.81;5016489;28;20072;-91
2022/04/29 06:38:22;;;;;;;35.10;15.43;;;;;;;16.22;36.63;94316.09;5052195;28;20165;-88
2022/04/29 06:40:47;;;;;;;59.85;15.15;;;;;;;16.24;36.72;94321.81;5014803;28;20420;-87
2022/04/29 06:43:13;;;;;;;54.50;17.30;;;;;;;16.26;36.68;94320.09;5017134;28;20046;-87
2022/04/29 06:45:38;;;;;;;40.25;16.20;;;;;;;16.28;36.55;94325.81;5013340;28;20048;-93
2022/04/29 06:48:04;;;;;;;39.10;16.08;;;;;;;16.33;36.42;94327.13;5020823;28;20045;-89
2022/04/29 06:50:30;;;;;;;63.35;18.58;;;;;;;16.30;36.77;94333.53;5020914;28;20052;-88
2022/04/29 06:52:55;;;;;;;50.13;18.13;;;;;;;16.34;36.67;94334.09;5036052;28;20530;-91
2022/04/29 06:55:21;;;;;;;54.03;22.63;;;;;;;16.30;37.14;94328.84;5039894;28;20033;-93
2022/04/29 06:57:49;;;;;;;47.63;22.67;;;;;;;16.32;36.41;94328.38;5030351;28;20037;-93
2022/04/29 07:00:15;;;;;;;52.10;20.42;;;;;;;16.37;36.46;94331.19;5029497;28;20491;-90
2022/04/29 07:02:41;;;;;;;204.65;28.17;;;;;;;16.34;36.61;94332.13;5036536;28;20051;-89
2022/04/29 07:05:07;;;;;;;102.90;20.67;;;;;;;16.37;36.86;94325.72;5015403;28;20471;-92
2022/04/29 07:07:35;;;;;;;77.72;16.75;;;;;;;16.39;36.62;94330.72;5053770;28;20044;-90
2022/04/29 07:10:00;;;;;;;60.90;16.13;;;;;;;16.44;36.94;94319.88;5034648;28;20038;-91
2022/04/29 07:12:26;;;;;;;66.15;16.90;;;;;;;16.41;36.56;94320.06;5015387;28;20052;-89
2022/04/29 07:14:52;;;;;;;404.85;47.63;;;;;;;16.42;36.55;94313.38;5039044;28;20038;-92
2022/04/29 07:17:18;;;;;;;50.97;16.83;;;;;;;16.36;36.75;94318.00;5017572;28;20419;-89
2022/04/29 07:19:44;;;;;;;143.38;28.10;;;;;;;16.33;36.14;94316.22;5032727;28;20037;-88
2022/04/29 07:22:09;;;;;;;95.32;24.17;;;;;;;16.34;36.36;94315.00;5008879;28;20043;-89
2022/04/29 07:24:35;;;;;;;103.95;26.35;;;;;;;16.40;36.42;94310.38;5053502;28;20082;-87
2022/04/29 07:27:01;;;;;;;110.80;24.65;;;;;;;16.42;36.19;94313.38;5033498;28;20112;-89
2022/04/29 07:29:26;;;;;;;102.20;24.60;;;;;;;16.41;36.17;94311.88;5030100;28;20036;-90
2022/04/29 07:31:52;;;;;;;81.70;23.45;;;;;;;16.43;35.96;94298.50;5027779;28;20046;-88
2022/04/29 07:34:17;;;;;;;78.03;21.80;;;;;;;16.43;35.58;94312.16;5030063;28;20037;-89
2022/04/29 07:42:11;;;;;;;111.15;50.75;;;;;;;16.33;33.64;94308.03;5039209;28;20063;-91
2022/04/29 07:44:36;;;;;;;115.40;46.80;;;;;;;16.39;34.12;94306.16;5043432;28;20496;-90
2022/04/29 07:47:02;;;;;;;127.63;58.25;;;;;;;16.34;33.59;94302.09;5019237;28;20040;-91
2022/04/29 07:49:27;;;;;;;139.90;66.05;;;;;;;16.35;33.50;94300.88;5015655;28;20102;-91
2022/04/29 07:51:53;;;;;;;111.00;58.10;;;;;;;16.35;33.69;94298.16;5041785;28;20041;-91
2022/04/29 07:54:19;;;;;;;138.73;60.72;;;;;;;16.36;33.86;94296.19;5032521;28;20037;-89
2022/04/29 07:56:44;;;;;;;167.88;81.40;;;;;;;16.44;33.65;94300.03;5007425;28;20034;-90
2022/04/29 07:59:10;;;;;;;145.00;70.57;;;;;;;16.43;33.07;94293.81;5040929;28;20052;-89
2022/04/29 08:01:37;;;;;;;132.13;73.13;;;;;;;16.36;33.50;94302.38;5014574;28;20044;-90
2022/04/29 08:04:02;;;;;;;119.53;61.13;;;;;;;16.36;33.49;94301.63;5032148;28;20444;-93
2022/04/29 08:06:28;;;;;;;85.40;43.00;;;;;;;16.39;33.30;94301.44;5019369;28;20033;-88
2022/04/29 08:08:54;;;;;;;74.65;43.33;;;;;;;16.35;33.49;94302.88;5045148;28;20419;-89
2022/04/29 08:11:19;;;;;;;70.90;37.20;;;;;;;16.36;33.14;94296.19;5013352;28;20041;-88
2022/04/29 08:13:45;;;;;;;67.80;33.65;;;;;;;16.39;32.76;94295.22;5007973;28;20095;-88
2022/04/29 08:16:14;;;;;;;40.75;24.92;;;;;;;16.39;32.68;94290.53;5050976;28;20047;-89
2022/04/29 08:18:40;;;;;;;30.33;16.13;;;;;;;16.25;33.15;94299.50;5033274;28;20068;-90
2022/04/29 08:21:05;;;;;;;40.75;17.33;;;;;;;16.31;32.86;94296.84;5028863;28;20040;-89
2022/04/29 08:23:32;;;;;;;37.65;18.02;;;;;;;16.34;32.63;94293.94;5011198;28;20041;-88
2022/04/29 08:25:57;;;;;;;48.40;18.63;;;;;;;16.37;32.77;94301.16;4979015;28;20041;-88
2022/04/29 08:28:23;;;;;;;41.15;20.48;;;;;;;16.32;32.61;94293.66;4983426;28;20594;-90
2022/04/29 08:30:49;;;;;;;43.03;21.20;;;;;;;16.26;32.76;94300.25;5008848;28;20057;-88
2022/04/29 08:33:14;;;;;;;38.95;21.85;;;;;;;16.31;32.59;94296.84;4993223;28;20061;-88
2022/04/29 08:35:40;;;;;;;42.35;22.02;;;;;;;16.26;32.47;94298.25;4976737;28;20046;-91
2022/04/29 08:38:10;;;;;;;57.83;22.23;;;;;;;16.26;32.39;94289.34;4989789;28;20053;-90
2022/04/29 08:40:42;;;;;;;45.35;21.00;;;;;;;16.28;32.75;94292.34;5010093;28;20600;-90
2022/04/29 08:43:08;;;;;;;52.00;24.15;;;;;;;16.24;32.80;94292.53;4979513;28;20827;-85
2022/04/29 08:45:36;;;;;;;59.15;27.38;;;;;;;16.23;32.78;94295.75;5007204;28;20041;-89
2022/04/29 08:48:01;;;;;;;53.72;22.23;;;;;;;16.11;33.06;94292.09;4998813;28;20111;-85
2022/04/29 08:50:27;;;;;;;45.35;20.00;;;;;;;16.11;33.19;94294.84;4990134;28;20282;-86
2022/04/29 08:52:55;;;;;;;46.28;20.52;;;;;;;16.18;33.16;94291.72;5013279;28;20052;-84
2022/04/29 09:00:49;;;;;;;48.53;21.23;;;;;;;16.30;32.87;94279.72;5036711;28;20068;-86
2022/04/29 09:03:20;;;;;;;41.90;19.58;;;;;;;16.30;32.78;94279.72;5034995;28;20407;-89
2022/04/29 09:05:47;;;;;;;;;;;;;;;16.31;32.74;94270.31;5037672;28;20060;-87
2022/04/29 09:08:20;;;;;;;38.33;18.50;;;;;;;16.30;32.71;94268.81;5031980;28;19974;-88
2022/04/29 09:10:56;;;;;;;50.63;24.40;;;;;;;16.22;32.82;94275.91;5031679;28;20042;-85
2022/04/29 09:13:29;;;;;;;40.40;22.67;;;;;;;16.27;33.07;94266.28;5015189;28;20059;-85
2022/04/29 09:16:04;;;;;;;47.50;23.15;;;;;;;16.21;32.77;94268.19;5009473;28;20061;-85
2022/04/29 09:18:34;;;;;;;48.70;21.95;;;;;;;16.29;32.61;94261.09;5002847;28;20115;-86
2022/04/29 09:21:17;;;;;;;63.08;28.85;;;;;;;16.28;32.76;94254.16;5023723;28;20563;-86
2022/04/29 09:23:47;;;;;;;39.47;20.10;;;;;;;16.28;33.00;94263.06;5027306;28;20064;-83
2022/04/29 09:26:29;;;;;;;34.40;17.90;;;;;;;16.25;33.06;94264.03;5021585;28;20500;-83
2022/04/29 09:29:12;;;;;;;30.48;14.40;;;;;;;16.30;33.18;94257.16;5043111;28;20048;-84
2022/04/29 09:31:53;;;;;;;38.72;19.85;;;;;;;16.27;32.88;94250.66;5028662;28;20511;-85
2022/04/29 09:34:22;;;;;;;65.65;26.05;;;;;;;16.23;32.75;94249.38;5030794;28;20041;-84
2022/04/29 09:36:47;;;;;;;52.05;21.77;;;;;;;16.14;34.04;94244.78;5052002;28;20109;-83
2022/04/29 09:39:30;;;;;;;47.05;21.88;;;;;;;16.20;33.94;94248.34;5027475;28;20078;-85
2022/04/29 09:41:59;;;;;;;61.38;23.60;;;;;;;16.24;33.94;94246.16;5027600;28;20057;-86
2022/04/29 09:44:34;;;;;;;39.95;17.65;;;;;;;16.26;34.87;94248.41;5042407;28;20037;-86
2022/04/29 09:47:11;;;;;;;34.05;15.77;;;;;;;16.15;35.79;94245.53;5049931;28;20037;-84
2022/04/29 09:49:36;;;;;;;27.63;15.38;;;;;;;16.16;35.88;94244.31;5029057;28;20873;-89
2022/04/29 09:52:02;;;;;;;25.85;14.35;;;;;;;16.16;36.16;94238.88;5013904;28;20052;-88
2022/04/29 09:54:29;;;;;;;20.25;12.48;;;;;;;16.13;36.65;94243.28;5024257;28;20045;-85
2022/04/29 09:57:18;;;;;;;23.80;12.10;;;;;;;16.16;36.93;94238.88;5031859;28;20044;-86
2022/04/29 09:59:48;;;;;;;18.23;10.80;;;;;;;16.08;37.37;94228.34;5029586;28;20037;-90
2022/04/29 10:02:21;;;;;;;;;;;;;;;16.16;37.46;94228.72;5004850;28;20132;-85
2022/04/29 10:04:47;;;;;;;23.38;12.05;;;;;;;16.15;37.30;94226.44;5041283;28;19935;-88
2022/04/29 10:07:14;;;;;;;22.52;11.40;;;;;;;16.17;37.32;94224.00;5052117;28;20040;-86
2022/04/29 10:09:41;;;;;;;15.32;10.45;;;;;;;16.05;37.71;94218.38;5016610;28;20200;-86
2022/04/29 10:12:15;;;;;;;18.63;11.73;;;;;;;16.08;37.39;94219.41;5005283;28;20034;-85
2022/04/29 10:14:41;;;;;;;18.02;11.20;;;;;;;16.09;37.02;94212.72;5024486;28;20041;-87
2022/04/29 10:22:53;;;;;;;12.90;9.25;;;;;;;16.02;37.26;94216.59;5010123;28;20099;-83
2022/04/29 10:25:20;;;;;;;13.20;8.82;;;;;;;15.93;37.07;94213.25;5007168;28;20057;-88
2022/04/29 10:27:45;;;;;;;12.85;8.77;;;;;;;16.02;36.80;94213.16;5008465;28;20631;-85
2022/04/29 10:30:17;;;;;;;14.90;9.57;;;;;;;15.91;36.93;94216.47;4996434;28;20128;-87
2022/04/29 10:33:04;;;;;;;62.85;14.90;;;;;;;15.93;37.03;94211.28;5014505;28;20527;-84
2022/04/29 10:35:53;;;;;;;76.28;16.58;;;;;;;15.88;37.15;94203.78;5024326;28;20048;-86
2022/04/29 10:38:35;;;;;;;65.85;15.93;;;;;;;15.85;37.35;94201.25;5027162;28;20140;-87
2022/04/29 10:41:07;;;;;;;51.88;13.63;;;;;;;15.86;37.23;94200.78;5015877;28;20041;-88
2022/04/29 10:43:39;;;;;;;50.78;13.60;;;;;;;15.76;37.04;94208.34;5040404;28;20466;-85
2022/04/29 10:46:14;;;;;;;47.75;12.68;;;;;;;15.78;37.07;94205.13;5028456;28;20049;-83
2022/04/29 10:48:40;;;;;;;57.88;22.65;;;;;;;15.86;36.88;94202.75;5028538;28;20061;-83
2022/04/29 10:51:21;;;;;;;33.72;14.88;;;;;;;15.88;37.01;94192.88;5027552;28;20071;-83
2022/04/29 10:53:48;;;;;;;;;;;;;;;15.97;36.85;94189.28;5039636;28;20041;-83
2022/04/29 10:56:29;;;;;;;53.78;14.38;;;;;;;15.97;36.62;94181.84;5027040;28;19921;-82
2022/04/29 10:59:04;;;;;;;34.65;12.80;;;;;;;15.98;36.87;94191.53;5036956;28;20053;-83
2022/04/29 11:01:36;;;;;;;37.38;11.55;;;;;;;15.98;36.87;94185.31;5030158;28;20080;-83
2022/04/29 11:04:02;;;;;;;31.48;11.85;;;;;;;15.98;37.22;94177.16;5021716;28;20036;-83
2022/04/29 11:06:48;;;;;;;22.88;10.55;;;;;;;16.03;37.07;94173.72;5033397;28;20037;-83
2022/04/29 11:09:35;;;;;;;20.50;9.98;;;;;;;16.05;37.27;94180.22;5050964;28;20508;-85
2022/04/29 11:12:01;;;;;;;39.92;14.00;;;;;;;15.96;37.71;94179.59;5060141;28;20067;-83
2022/04/29 11:14:26;;;;;;;70.47;16.20;;;;;;;15.92;37.52;94168.88;5030852;28;20033;-83
2022/04/29 11:16:53;;;;;;;88.22;18.65;;;;;;;15.98;37.52;94164.28;4990174;28;20046;-84
2022/04/29 11:19:34;;;;;;;88.43;18.80;;;;;;;15.90;37.94;94170.59;5005925;28;20107;-83
2022/04/29 11:24:49;;;;;;;99.13;17.60;;;;;;;15.98;37.58;94156.09;5012765;28;20466;-86
2022/04/29 11:27:25;;;;;;;67.28;15.02;;;;;;;15.91;37.92;94164.66;5009454;28;20041;-84
2022/04/29 11:29:50;;;;;;;45.53;12.93;;;;;;;15.96;37.16;94161.25;4977518;28;20049;-83
2022/04/29 11:32:22;;;;;;;58.22;13.35;;;;;;;15.99;37.08;94167.75;4997321;28;20037;-84
2022/04/29 11:34:52;;;;;;;37.85;11.27;;;;;;;15.87;37.68;94164.09;4993951;28;20096;-83
2022/04/29 11:37:24;;;;;;;38.60;12.32;;;;;;;15.92;37.53;94159.97;5025639;28;20072;-83
2022/04/29 11:39:50;;;;;;;216.18;37.67;;;;;;;15.93;37.47;94156.00;5005763;28;20044;-86
2022/04/29 11:42:19;;;;;;;138.60;24.55;;;;;;;15.92;37.38;94157.22;4992324;28;20483;-92
2022/04/29 11:44:45;;;;;;;80.72;18.27;;;;;;;15.91;37.44;94145.56;4976424;28;20095;-83
2022/04/29 11:47:11;;;;;;;88.40;17.65;;;;;;;15.93;37.57;94150.56;5027661;28;20124;-89
2022/04/29 11:49:37;;;;;;;45.83;13.32;;;;;;;15.86;37.64;94148.97;5028888;28;20033;-86
2022/04/29 11:52:19;;;;;;;46.00;13.27;;;;;;;15.88;37.53;94140.31;5037881;28;20071;-84
2022/04/29 11:54:57;;;;;;;34.78;11.40;;;;;;;15.85;37.96;94141.25;5048405;28;20032;-87
2022/04/29 11:57:24;;;;;;;36.28;11.93;;;;;;;15.95;37.67;94139.94;5030638;28;20037;-83